Time;durP1;ratioP1;P1;durP2;ratioP2;P2;SDS_P1;SDS_P2;PMS_P1;PMS_P2;Temp;Humidity;BMP_temperature;BMP_pressure;BME280_temperature;BME280_humidity;BME280_pressure;Samples;Min_cycle;Max_cycle;Signal;HPM_P1;HPM_P2
2023/06/17 00:02:11;;;;;;;14.55;7.22;;;17.80;99.90;;;;;;7411655;19;19937;-79
2023/06/17 00:04:43;;;;;;;11.23;7.22;;;17.90;99.90;;;;;;7412226;19;19927;-79
2023/06/17 00:07:15;;;;;;;10.10;6.65;;;18.10;99.90;;;;;;7414846;19;19945;-79
2023/06/17 00:09:47;;;;;;;17.48;7.60;;;17.80;99.90;;;;;;7411382;19;19951;-79
2023/06/17 00:12:21;;;;;;;12.02;6.50;;;17.60;99.90;;;;;;7411861;19;20584;-79
2023/06/17 00:14:56;;;;;;;14.77;6.80;;;17.80;99.90;;;;;;7413229;19;19922;-79
2023/06/17 00:17:33;;;;;;;14.00;7.30;;;17.70;99.90;;;;;;7412248;19;19929;-78
2023/06/17 00:20:08;;;;;;;10.80;6.85;;;17.40;99.90;;;;;;7411701;19;19934;-78
2023/06/17 00:22:43;;;;;;;17.05;7.55;;;17.20;99.90;;;;;;7408862;19;19926;-78
2023/06/17 00:25:18;;;;;;;13.00;7.43;;;17.70;99.90;;;;;;7413762;19;19918;-79
2023/06/17 00:27:49;;;;;;;13.10;8.27;;;17.50;99.90;;;;;;7410358;19;20007;-79
2023/06/17 00:30:23;;;;;;;13.98;8.05;;;17.30;99.90;;;;;;7410836;19;19919;-78
2023/06/17 00:32:56;;;;;;;16.48;8.10;;;15.60;99.90;;;;;;7413221;19;19910;-78
2023/06/17 00:35:27;;;;;;;14.40;8.45;;;17.40;99.90;;;;;;7411511;19;19911;-78
2023/06/17 00:37:57;;;;;;;15.05;8.52;;;15.00;99.90;;;;;;7409343;19;19940;-79
2023/06/17 00:40:30;;;;;;;12.68;7.72;;;17.00;99.90;;;;;;7413383;19;20246;-79
2023/06/17 00:43:06;;;;;;;13.18;8.18;;;17.20;99.90;;;;;;7407565;19;19911;-78
2023/06/17 00:45:42;;;;;;;15.27;7.65;;;17.70;99.90;;;;;;7410798;19;19918;-78
2023/06/17 00:48:13;;;;;;;13.57;8.10;;;17.00;99.90;;;;;;7412006;19;20342;-79
2023/06/17 00:50:51;;;;;;;14.07;8.77;;;16.00;99.90;;;;;;7409694;19;19919;-79
2023/06/17 00:53:25;;;;;;;11.18;7.40;;;17.20;99.90;;;;;;7414531;19;19941;-79
2023/06/17 00:55:58;;;;;;;14.77;7.72;;;17.00;99.90;;;;;;7410416;19;19919;-79
2023/06/17 00:58:34;;;;;;;14.55;9.10;;;16.90;99.90;;;;;;7410987;19;19925;-78
2023/06/17 01:01:15;;;;;;;10.93;8.18;;;17.20;99.90;;;;;;7410615;19;19942;-79
2023/06/17 01:03:49;;;;;;;17.60;8.35;;;16.80;99.90;;;;;;7407797;19;20373;-79
2023/06/17 01:06:29;;;;;;;16.27;9.43;;;16.80;99.90;;;;;;7408718;19;19970;-78
2023/06/17 01:09:09;;;;;;;15.98;8.85;;;16.70;99.90;;;;;;7410044;19;19939;-79
2023/06/17 01:11:44;;;;;;;14.30;8.73;;;16.60;99.90;;;;;;7413130;19;19914;-79
2023/06/17 01:14:16;;;;;;;14.40;8.80;;;15.90;99.90;;;;;;7410236;19;19914;-78
2023/06/17 01:16:50;;;;;;;15.90;8.95;;;15.00;99.90;;;;;;7409590;19;19914;-79
2023/06/17 01:19:25;;;;;;;15.80;9.52;;;16.60;99.90;;;;;;7407830;19;20376;-79
2023/06/17 01:22:00;;;;;;;19.30;9.50;;;16.70;99.90;;;;;;7411218;19;19923;-78
2023/06/17 01:24:33;;;;;;;16.70;9.23;;;16.60;99.90;;;;;;7408486;19;19978;-79
2023/06/17 01:27:06;;;;;;;17.02;9.10;;;16.70;99.90;;;;;;7409114;19;20358;-78
2023/06/17 01:29:37;;;;;;;20.63;10.73;;;16.90;99.90;;;;;;7408967;19;20046;-78
2023/06/17 01:32:11;;;;;;;16.23;8.90;;;16.70;99.90;;;;;;7409940;19;19923;-78
2023/06/17 01:34:53;;;;;;;23.55;10.55;;;16.60;99.90;;;;;;7409595;19;19915;-78
2023/06/17 01:37:27;;;;;;;16.88;10.43;;;16.00;99.90;;;;;;7409788;19;20304;-79
2023/06/17 01:40:06;;;;;;;15.20;9.50;;;16.60;99.90;;;;;;7409113;19;20476;-79
2023/06/17 01:42:41;;;;;;;14.38;9.65;;;16.90;99.90;;;;;;7410468;19;19917;-79
2023/06/17 01:45:17;;;;;;;17.02;9.32;;;16.50;99.90;;;;;;7410070;19;19922;-79
2023/06/17 01:47:50;;;;;;;17.23;9.20;;;16.70;99.90;;;;;;7411674;19;19918;-79
2023/06/17 01:50:21;;;;;;;14.30;9.68;;;17.00;99.90;;;;;;7411593;19;19914;-78
2023/06/17 01:52:54;;;;;;;20.17;9.48;;;16.90;99.90;;;;;;7412013;19;19922;-79
2023/06/17 01:55:30;;;;;;;17.27;9.50;;;16.90;99.90;;;;;;7410950;19;19918;-79
2023/06/17 01:58:01;;;;;;;17.50;9.48;;;17.10;99.90;;;;;;7407817;19;19910;-79
2023/06/17 02:00:31;;;;;;;20.83;9.75;;;16.50;99.90;;;;;;7411910;19;20374;-79
2023/06/17 02:03:03;;;;;;;16.20;8.95;;;16.50;99.90;;;;;;7407940;19;19922;-79
2023/06/17 02:05:34;;;;;;;15.82;8.45;;;16.50;99.90;;;;;;7408409;19;19934;-78
2023/06/17 02:08:05;;;;;;;13.60;9.07;;;16.50;99.90;;;;;;7408312;19;19954;-79
2023/06/17 02:10:41;;;;;;;13.40;8.50;;;16.60;99.90;;;;;;7407222;19;19966;-79
2023/06/17 02:13:12;;;;;;;14.90;8.93;;;16.50;99.90;;;;;;7408857;19;19922;-79
2023/06/17 02:15:45;;;;;;;12.65;7.88;;;16.70;99.90;;;;;;7410687;19;19941;-78
2023/06/17 02:18:19;;;;;;;17.58;7.60;;;16.40;99.90;;;;;;7408682;19;19954;-78
2023/06/17 02:20:53;;;;;;;12.63;7.97;;;16.70;99.90;;;;;;7405466;19;19914;-78
2023/06/17 02:23:26;;;;;;;17.55;8.48;;;16.50;99.90;;;;;;7407228;19;19922;-79
2023/06/17 02:26:00;;;;;;;13.48;7.45;;;16.50;99.90;;;;;;7409799;19;19943;-79
2023/06/17 02:28:35;;;;;;;12.93;7.80;;;16.80;99.90;;;;;;7408457;19;19915;-79
2023/06/17 02:31:09;;;;;;;14.70;7.57;;;16.40;99.90;;;;;;7408430;19;19919;-78
2023/06/17 02:33:42;;;;;;;11.43;7.57;;;16.40;99.90;;;;;;7409596;19;19944;-79
2023/06/17 02:36:14;;;;;;;13.10;7.35;;;18.10;99.90;;;;;;7406000;19;20257;-78
2023/06/17 02:38:44;;;;;;;18.27;8.50;;;15.70;99.90;;;;;;7411283;19;19921;-79
2023/06/17 02:41:18;;;;;;;12.68;8.02;;;16.90;99.90;;;;;;7406188;19;19922;-80
2023/06/17 02:43:49;;;;;;;17.55;9.02;;;16.60;99.90;;;;;;7404596;19;19935;-79
2023/06/17 02:46:30;;;;;;;15.35;8.25;;;16.10;99.90;;;;;;7408276;19;19929;-79
2023/06/17 02:49:01;;;;;;;15.80;7.57;;;15.30;99.90;;;;;;7407636;19;19926;-79
2023/06/17 02:51:34;;;;;;;13.48;8.05;;;16.20;99.90;;;;;;7411907;19;19946;-78
2023/06/17 02:54:08;;;;;;;15.07;7.50;;;16.30;99.90;;;;;;7406652;19;19938;-79
2023/06/17 02:56:46;;;;;;;14.35;8.93;;;16.20;99.90;;;;;;7408178;19;19926;-79
2023/06/17 02:59:18;;;;;;;16.27;8.70;;;16.40;99.90;;;;;;7409171;19;19919;-79
2023/06/17 03:01:48;;;;;;;18.98;8.52;;;16.40;99.90;;;;;;7405788;19;19954;-79
2023/06/17 03:04:20;;;;;;;14.38;8.95;;;16.20;99.90;;;;;;7409133;19;19919;-78
2023/06/17 03:06:50;;;;;;;17.25;8.75;;;16.30;99.90;;;;;;7404635;19;19918;-79
2023/06/17 03:09:27;;;;;;;19.00;9.60;;;16.70;99.90;;;;;;7404082;19;19938;-78
2023/06/17 03:12:02;;;;;;;16.58;8.35;;;16.30;99.90;;;;;;7405442;19;19977;-78
2023/06/17 03:14:40;;;;;;;15.15;8.60;;;16.20;99.90;;;;;;7406778;19;19946;-79
2023/06/17 03:17:15;;;;;;;14.95;8.00;;;16.20;99.90;;;;;;7410648;19;19924;-79
2023/06/17 03:19:46;;;;;;;20.23;9.18;;;16.50;99.90;;;;;;7406871;19;19929;-78
2023/06/17 03:22:18;;;;;;;16.23;9.85;;;16.60;99.90;;;;;;7405787;19;19935;-78
2023/06/17 03:24:53;;;;;;;17.15;9.32;;;16.20;99.90;;;;;;7406117;19;19915;-79
2023/06/17 03:27:28;;;;;;;17.15;8.55;;;16.10;99.90;;;;;;7406750;19;19923;-79
2023/06/17 03:30:01;;;;;;;15.82;8.32;;;16.20;99.90;;;;;;7408906;19;19957;-79
2023/06/17 03:32:32;;;;;;;12.20;8.30;;;16.10;99.90;;;;;;7407915;19;19942;-78
2023/06/17 03:35:06;;;;;;;16.02;8.23;;;16.10;99.90;;;;;;7406213;19;19927;-79
2023/06/17 03:37:36;;;;;;;15.02;8.85;;;16.00;99.90;;;;;;7406914;19;20038;-79
2023/06/17 03:40:07;;;;;;;13.90;9.30;;;16.30;99.90;;;;;;7405872;19;19911;-79
2023/06/17 03:42:40;;;;;;;18.83;9.57;;;16.00;99.90;;;;;;7404255;19;19986;-78
2023/06/17 03:45:20;;;;;;;16.90;9.02;;;16.10;99.90;;;;;;7407532;19;19922;-79
2023/06/17 03:47:56;;;;;;;15.50;9.18;;;15.30;99.90;;;;;;7403261;19;19925;-79
2023/06/17 03:50:30;;;;;;;19.70;10.07;;;16.70;99.90;;;;;;7406806;19;19933;-79
2023/06/17 03:53:04;;;;;;;14.32;9.20;;;16.30;99.90;;;;;;7411464;19;19931;-79
2023/06/17 03:55:36;;;;;;;17.90;9.50;;;16.30;99.90;;;;;;7406618;19;19926;-79
2023/06/17 03:58:14;;;;;;;19.00;10.30;;;16.20;99.90;;;;;;7405058;19;19928;-79
2023/06/17 04:00:56;;;;;;;14.27;9.52;;;16.40;99.90;;;;;;7406146;19;19926;-78
2023/06/17 04:03:28;;;;;;;18.40;9.75;;;18.20;99.90;;;;;;7405121;19;20271;-79
2023/06/17 04:06:03;;;;;;;14.43;8.65;;;16.40;99.90;;;;;;7402993;19;20332;-79
2023/06/17 04:08:43;;;;;;;19.75;10.40;;;16.40;99.90;;;;;;7403552;19;19918;-79
2023/06/17 04:11:18;;;;;;;17.95;9.70;;;17.10;99.90;;;;;;7407047;19;19935;-78
2023/06/17 04:13:51;;;;;;;19.15;9.60;;;16.70;99.90;;;;;;7404478;19;19922;-79
2023/06/17 04:16:23;;;;;;;16.60;9.63;;;16.60;99.90;;;;;;7405559;19;19931;-80
2023/06/17 04:18:57;;;;;;;;;;;16.80;99.90;;;;;;7407433;19;19918;-79
2023/06/17 04:21:28;;;;;;;21.40;10.02;;;16.40;99.90;;;;;;7412136;19;19974;-79
2023/06/17 04:23:58;;;;;;;21.02;11.18;;;16.50;99.90;;;;;;7410291;19;19949;-79
2023/06/17 04:26:29;;;;;;;18.80;10.80;;;16.30;99.90;;;;;;7411131;19;19911;-79
2023/06/17 04:29:06;;;;;;;20.08;10.68;;;16.40;99.90;;;;;;7413227;19;19918;-79
2023/06/17 04:31:46;;;;;;;18.48;9.55;;;16.30;99.90;;;;;;7411661;19;19926;-79
2023/06/17 04:34:21;;;;;;;18.92;10.52;;;16.20;99.90;;;;;;7413821;19;19918;-79
2023/06/17 04:36:57;;;;;;;21.20;10.82;;;16.20;99.90;;;;;;7408891;19;19915;-79
2023/06/17 04:39:29;;;;;;;19.40;10.57;;;16.30;99.90;;;;;;7411944;19;19918;-79
2023/06/17 04:42:00;;;;;;;19.65;11.32;;;16.80;99.90;;;;;;7410492;19;19922;-80
2023/06/17 04:44:42;;;;;;;19.60;9.90;;;16.50;99.90;;;;;;7409656;19;19921;-78
2023/06/17 04:47:16;;;;;;;17.25;9.95;;;16.10;99.90;;;;;;7410067;19;19919;-78
2023/06/17 04:49:47;;;;;;;18.25;9.88;;;16.30;99.90;;;;;;7414975;19;19919;-79
2023/06/17 04:52:19;;;;;;;15.93;9.63;;;16.20;99.90;;;;;;7411252;19;19929;-79
2023/06/17 04:54:56;;;;;;;19.52;10.00;;;16.20;99.90;;;;;;7410199;19;19933;-78
2023/06/17 04:57:27;;;;;;;20.50;11.25;;;16.70;99.90;;;;;;7411277;19;19923;-77
2023/06/17 05:00:02;;;;;;;18.75;9.77;;;16.40;99.90;;;;;;7412860;19;19926;-79
2023/06/17 05:02:33;;;;;;;17.30;9.82;;;16.50;99.90;;;;;;7409148;19;19922;-79
2023/06/17 05:05:03;;;;;;;22.00;12.23;;;16.30;99.90;;;;;;7408031;19;19911;-79
2023/06/17 05:07:37;;;;;;;20.70;11.38;;;16.30;99.90;;;;;;7409729;19;19914;-78
2023/06/17 05:10:09;;;;;;;19.48;10.57;;;16.80;99.90;;;;;;7409247;19;19918;-79
2023/06/17 05:12:40;;;;;;;17.52;11.05;;;17.20;99.90;;;;;;7410120;19;20329;-79
2023/06/17 05:15:17;;;;;;;19.92;10.23;;;16.70;99.90;;;;;;7409915;19;19917;-79
2023/06/17 05:17:52;;;;;;;16.13;9.25;;;16.50;99.90;;;;;;7411702;19;19914;-79
2023/06/17 05:20:25;;;;;;;13.18;9.38;;;16.80;99.90;;;;;;7412897;19;19918;-79
2023/06/17 05:23:03;;;;;;;24.33;10.60;;;16.10;99.90;;;;;;7406639;19;20333;-79
2023/06/17 05:25:37;;;;;;;16.45;10.43;;;16.80;99.90;;;;;;7407502;19;19922;-78
2023/06/17 05:28:10;;;;;;;18.73;10.80;;;16.50;99.90;;;;;;7407269;19;19950;-77
2023/06/17 05:30:48;;;;;;;24.55;10.98;;;16.60;99.90;;;;;;7408151;19;19919;-77
2023/06/17 05:33:18;;;;;;;17.33;10.30;;;16.30;99.90;;;;;;7405969;19;19914;-77
2023/06/17 05:35:51;;;;;;;17.30;11.10;;;16.50;99.90;;;;;;7407625;19;19926;-77
2023/06/17 05:38:23;;;;;;;14.70;9.27;;;16.40;99.90;;;;;;7407518;19;19923;-77
2023/06/17 05:40:55;;;;;;;19.58;10.63;;;16.70;99.90;;;;;;7409243;19;19922;-77
2023/06/17 05:43:30;;;;;;;19.63;9.60;;;16.70;99.90;;;;;;7409330;19;20365;-76
2023/06/17 05:46:04;;;;;;;23.10;12.43;;;16.50;99.90;;;;;;7408348;19;20294;-76
2023/06/17 05:48:34;;;;;;;14.68;9.48;;;16.50;99.90;;;;;;7409628;19;20384;-77
2023/06/17 05:51:06;;;;;;;14.65;8.88;;;14.90;99.90;;;;;;7410438;19;19925;-76
2023/06/17 05:53:40;;;;;;;20.42;10.63;;;16.50;99.90;;;;;;7409634;19;19915;-77
2023/06/17 05:56:13;;;;;;;15.68;9.98;;;16.60;99.90;;;;;;7408222;19;19922;-76
2023/06/17 05:58:44;;;;;;;20.05;9.90;;;16.60;99.90;;;;;;7408796;19;19917;-77
2023/06/17 06:01:19;;;;;;;18.65;10.75;;;16.70;99.90;;;;;;7407927;19;19974;-77
2023/06/17 06:03:50;;;;;;;17.08;9.85;;;16.50;99.90;;;;;;7409262;19;19922;-78
2023/06/17 06:06:30;;;;;;;18.88;10.13;;;16.70;99.90;;;;;;7407203;19;19974;-77
2023/06/17 06:09:01;;;;;;;14.10;8.70;;;16.50;99.90;;;;;;7410212;19;20020;-77
2023/06/17 06:11:32;;;;;;;21.20;9.70;;;14.50;99.90;;;;;;7408871;19;19929;-77
2023/06/17 06:14:04;;;;;;;19.10;8.73;;;17.10;99.90;;;;;;7408783;19;19911;-77
2023/06/17 06:16:37;;;;;;;;;;;16.80;99.90;;;;;;7411237;19;19922;-76
2023/06/17 06:19:08;;;;;;;14.73;8.77;;;17.70;99.90;;;;;;7407416;19;19929;-77
2023/06/17 06:21:42;;;;;;;15.25;9.10;;;16.60;99.90;;;;;;7409021;19;19982;-77
2023/06/17 06:24:12;;;;;;;17.27;9.25;;;16.80;99.90;;;;;;7407774;19;19955;-77
2023/06/17 06:26:46;;;;;;;17.83;9.50;;;17.20;99.90;;;;;;7410324;19;19919;-77
2023/06/17 06:29:18;;;;;;;15.52;9.65;;;18.70;99.90;;;;;;7407416;19;19914;-77
2023/06/17 06:31:56;;;;;;;16.88;9.23;;;18.20;99.90;;;;;;7406472;19;19951;-77
2023/06/17 06:34:30;;;;;;;15.95;8.88;;;17.50;99.90;;;;;;7408646;19;19911;-78
2023/06/17 06:37:00;;;;;;;17.10;8.75;;;17.00;99.90;;;;;;7406851;19;19939;-77
2023/06/17 06:39:31;;;;;;;17.10;9.13;;;16.70;99.90;;;;;;7407775;19;19938;-77
2023/06/17 06:42:10;;;;;;;14.32;9.10;;;17.20;99.90;;;;;;7408166;19;19919;-77
2023/06/17 06:44:41;;;;;;;14.38;9.05;;;16.70;99.90;;;;;;7408088;19;19918;-77
2023/06/17 06:47:17;;;;;;;17.60;9.25;;;17.00;99.90;;;;;;7408544;19;19932;-77
2023/06/17 06:49:49;;;;;;;15.48;9.00;;;17.30;99.90;;;;;;7409697;19;19911;-77
2023/06/17 06:52:32;;;;;;;13.10;8.02;;;17.70;99.90;;;;;;7410061;19;19915;-77
2023/06/17 06:55:05;;;;;;;14.88;8.90;;;17.60;99.90;;;;;;7409818;19;19918;-77
2023/06/17 06:57:38;;;;;;;;;;;17.10;99.90;;;;;;7412338;19;19918;-77
2023/06/17 07:00:11;;;;;;;19.08;10.00;;;16.70;99.90;;;;;;7410469;19;19986;-77
2023/06/17 07:02:51;;;;;;;15.35;8.40;;;17.20;99.90;;;;;;7406335;19;19919;-77
2023/06/17 07:05:26;;;;;;;21.85;11.18;;;17.00;99.90;;;;;;7407274;19;19919;-78
2023/06/17 07:08:07;;;;;;;20.50;10.48;;;17.30;99.90;;;;;;7405535;19;19931;-77
2023/06/17 07:10:47;;;;;;;19.35;10.18;;;18.70;99.90;;;;;;7403709;19;19931;-77
2023/06/17 07:13:19;;;;;;;18.02;9.25;;;17.00;99.90;;;;;;7404878;19;19911;-77
2023/06/17 07:15:50;;;;;;;17.30;10.48;;;17.10;99.90;;;;;;7405473;19;19940;-77
2023/06/17 07:18:25;;;;;;;;;;;17.00;99.90;;;;;;7408750;19;20319;-77
2023/06/17 07:20:59;;;;;;;15.20;8.65;;;17.30;99.90;;;;;;7404848;19;19982;-77
2023/06/17 07:23:30;;;;;;;20.02;8.68;;;16.80;99.90;;;;;;7408372;19;19915;-77
2023/06/17 07:26:07;;;;;;;16.10;8.48;;;19.00;99.90;;;;;;7403280;19;20269;-78
2023/06/17 07:28:39;;;;;;;21.33;9.45;;;17.30;99.90;;;;;;7403613;19;19914;-77
2023/06/17 07:31:09;;;;;;;14.30;8.45;;;17.50;99.90;;;;;;7406112;19;19914;-77
2023/06/17 07:33:44;;;;;;;18.08;8.73;;;17.40;99.90;;;;;;7405588;19;20403;-77
2023/06/17 07:36:17;;;;;;;16.50;9.43;;;17.60;99.90;;;;;;7406170;19;19919;-77
2023/06/17 07:39:05;;;;;;;15.80;7.82;;;18.30;99.90;;;;;;7407980;19;19915;-77
2023/06/17 07:41:37;;;;;;;15.20;8.65;;;19.40;99.90;;;;;;7408656;19;20578;-77
2023/06/17 07:44:19;;;;;;;15.88;9.27;;;18.00;99.90;;;;;;7406999;19;19918;-77
2023/06/17 07:46:52;;;;;;;22.77;9.48;;;16.50;99.90;;;;;;7408288;19;19931;-77
2023/06/17 07:49:25;;;;;;;20.58;9.50;;;16.20;99.90;;;;;;7407900;19;19926;-77
2023/06/17 07:51:56;;;;;;;15.18;8.27;;;17.90;99.90;;;;;;7404916;19;19919;-77
2023/06/17 07:54:35;;;;;;;13.65;8.00;;;17.80;99.90;;;;;;7408347;19;19915;-77
2023/06/17 07:57:07;;;;;;;17.08;8.90;;;17.10;99.90;;;;;;7411372;19;19922;-77
2023/06/17 07:59:42;;;;;;;15.80;8.95;;;16.90;99.90;;;;;;7413507;19;19925;-77
2023/06/17 08:02:13;;;;;;;17.42;9.30;;;18.40;99.90;;;;;;7412169;19;19925;-77
2023/06/17 08:04:50;;;;;;;19.10;9.43;;;18.20;99.90;;;;;;7413412;19;20378;-78
2023/06/17 08:07:24;;;;;;;15.88;8.52;;;18.30;99.90;;;;;;7410816;19;19962;-77
2023/06/17 08:09:57;;;;;;;14.63;9.60;;;18.50;99.90;;;;;;7411591;19;19918;-77
2023/06/17 08:12:31;;;;;;;14.02;8.65;;;17.90;99.90;;;;;;7409881;19;19925;-77
2023/06/17 08:15:13;;;;;;;17.55;8.25;;;18.30;99.90;;;;;;7413576;19;19911;-78
2023/06/17 08:17:50;;;;;;;17.70;8.27;;;16.60;99.90;;;;;;7412172;19;19922;-77
2023/06/17 08:20:26;;;;;;;13.30;8.82;;;18.50;99.90;;;;;;7413978;19;19910;-77
2023/06/17 08:23:05;;;;;;;14.35;7.93;;;19.00;99.90;;;;;;7409741;19;20507;-78
2023/06/17 08:25:49;;;;;;;14.07;8.95;;;18.80;99.90;;;;;;7408418;19;19919;-77
2023/06/17 08:28:22;;;;;;;17.88;8.68;;;18.50;99.90;;;;;;7412788;19;19958;-78
2023/06/17 08:30:57;;;;;;;13.75;8.18;;;18.60;99.90;;;;;;7416605;19;19937;-78
2023/06/17 08:33:29;;;;;;;15.35;7.63;;;20.40;99.90;;;;;;7409930;19;19925;-78
2023/06/17 08:36:02;;;;;;;13.45;7.80;;;18.50;99.90;;;;;;7410050;19;19918;-77
2023/06/17 08:38:34;;;;;;;17.40;8.38;;;18.60;99.90;;;;;;7410546;19;19923;-77
2023/06/17 08:41:07;;;;;;;14.65;7.97;;;18.70;99.90;;;;;;7411422;19;19927;-77
2023/06/17 08:43:41;;;;;;;15.93;8.10;;;18.70;99.90;;;;;;7409562;19;19914;-77
2023/06/17 08:46:14;;;;;;;14.88;7.10;;;19.00;99.90;;;;;;7411337;19;19931;-77
2023/06/17 08:48:48;;;;;;;11.68;7.28;;;20.00;99.90;;;;;;7412498;19;19942;-78
2023/06/17 08:51:22;;;;;;;16.15;8.90;;;19.20;99.90;;;;;;7411603;19;19929;-77
2023/06/17 08:53:55;;;;;;;15.35;7.50;;;19.20;99.90;;;;;;7411329;19;20333;-77
2023/06/17 08:56:49;;;;;;;13.70;7.82;;;20.00;99.90;;;;;;7412673;19;19943;-77
2023/06/17 08:59:21;;;;;;;12.23;7.65;;;19.20;99.90;;;;;;7409621;19;19922;-77
2023/06/17 09:01:55;;;;;;;12.43;7.45;;;18.90;99.90;;;;;;7410095;19;19910;-77
2023/06/17 09:04:26;;;;;;;14.27;7.47;;;18.90;99.90;;;;;;7408569;19;19981;-77
2023/06/17 09:07:01;;;;;;;17.17;8.63;;;19.30;99.90;;;;;;7408714;19;19970;-77
2023/06/17 09:09:35;;;;;;;14.38;7.30;;;19.10;99.90;;;;;;7407074;19;19918;-78
2023/06/17 09:12:08;;;;;;;10.85;7.53;;;19.00;99.90;;;;;;7408427;19;19927;-77
2023/06/17 09:14:38;;;;;;;12.52;7.32;;;19.00;99.90;;;;;;7408228;19;20212;-77
2023/06/17 09:17:12;;;;;;;12.70;7.70;;;19.10;99.90;;;;;;7408655;19;19918;-77
2023/06/17 09:19:45;;;;;;;14.05;7.95;;;19.20;99.90;;;;;;7410080;19;19919;-77
2023/06/17 09:22:23;;;;;;;15.77;7.57;;;19.30;99.90;;;;;;7408999;19;19970;-77
2023/06/17 09:25:01;;;;;;;10.30;7.22;;;19.30;99.90;;;;;;7406565;19;19922;-77
2023/06/17 09:27:40;;;;;;;11.48;7.38;;;19.30;99.90;;;;;;7411832;19;20429;-77
2023/06/17 09:30:13;;;;;;;14.18;7.30;;;19.10;99.90;;;;;;7409446;19;19918;-77
2023/06/17 09:32:46;;;;;;;14.35;7.68;;;19.10;99.90;;;;;;7409229;19;20271;-77
2023/06/17 09:35:17;;;;;;;11.25;8.32;;;18.10;99.90;;;;;;7408468;19;19922;-78
2023/06/17 09:37:57;;;;;;;13.35;6.65;;;19.40;99.90;;;;;;7408251;19;19922;-77
2023/06/17 09:40:35;;;;;;;14.65;8.15;;;19.10;99.90;;;;;;7407044;19;19918;-78
2023/06/17 09:43:09;;;;;;;15.15;7.68;;;19.20;99.90;;;;;;7406372;19;19930;-77
2023/06/17 09:45:44;;;;;;;11.02;6.35;;;19.40;99.90;;;;;;7405851;19;19938;-78
2023/06/17 09:48:19;;;;;;;9.93;6.60;;;19.40;99.90;;;;;;7406680;19;20329;-76
2023/06/17 09:50:52;;;;;;;10.00;6.60;;;19.80;99.90;;;;;;7407631;19;19915;-77
2023/06/17 09:53:27;;;;;;;14.50;7.63;;;19.90;99.90;;;;;;7406731;19;20353;-78
2023/06/17 09:55:58;;;;;;;11.20;7.93;;;18.30;99.90;;;;;;7411289;19;19911;-77
2023/06/17 09:58:31;;;;;;;13.57;7.53;;;19.90;99.90;;;;;;7406893;19;19935;-77
2023/06/17 10:01:05;;;;;;;12.75;6.63;;;19.90;99.90;;;;;;7408731;19;19934;-77
2023/06/17 10:03:45;;;;;;;13.07;7.43;;;20.20;99.90;;;;;;7408162;19;19922;-77
2023/06/17 10:06:19;;;;;;;11.15;7.47;;;20.10;99.90;;;;;;7407339;19;19906;-77
2023/06/17 10:08:57;;;;;;;12.23;6.97;;;20.40;99.90;;;;;;7405600;19;19915;-77
2023/06/17 10:11:30;;;;;;;12.45;7.18;;;20.90;99.90;;;;;;7405323;19;19915;-77
2023/06/17 10:14:05;;;;;;;14.57;6.78;;;20.20;99.90;;;;;;7410433;19;20015;-78
2023/06/17 10:16:42;;;;;;;13.32;7.10;;;20.80;99.90;;;;;;7406508;19;19919;-77
2023/06/17 10:19:15;;;;;;;12.20;7.28;;;20.50;99.90;;;;;;7404558;19;19942;-77
2023/06/17 10:21:54;;;;;;;12.73;7.00;;;20.70;99.90;;;;;;7408171;19;19911;-77
2023/06/17 10:24:29;;;;;;;12.80;6.97;;;20.90;99.90;;;;;;7405497;19;19930;-77
2023/06/17 10:27:05;;;;;;;;;;;21.00;99.90;;;;;;7408763;19;19947;-77
2023/06/17 10:29:37;;;;;;;15.77;7.28;;;21.70;99.90;;;;;;7406650;19;19919;-77
2023/06/17 10:32:32;;;;;;;12.07;6.63;;;21.20;99.90;;;;;;7408343;19;20286;-78
2023/06/17 10:35:24;;;;;;;10.82;6.72;;;21.70;99.90;;;;;;7406711;19;19918;-77
2023/06/17 10:37:55;;;;;;;14.23;7.50;;;21.40;99.90;;;;;;7405025;19;19914;-78
2023/06/17 10:40:35;;;;;;;14.40;7.25;;;21.80;99.90;;;;;;7406232;19;19918;-77
2023/06/17 10:43:24;;;;;;;10.98;6.53;;;21.80;99.90;;;;;;7402700;19;19932;-77
2023/06/17 10:45:58;;;;;;;13.52;7.45;;;21.90;99.90;;;;;;7406911;19;19907;-77
2023/06/17 10:48:33;;;;;;;10.50;6.75;;;21.90;99.90;;;;;;7407062;19;19927;-78
2023/06/17 10:51:06;;;;;;;12.65;6.68;;;22.70;99.90;;;;;;7405880;19;19922;-77
2023/06/17 10:53:40;;;;;;;14.70;8.07;;;22.60;99.90;;;;;;7406635;19;20640;-77
2023/06/17 10:56:14;;;;;;;14.23;7.72;;;22.30;99.90;;;;;;7406926;19;19930;-77
2023/06/17 10:58:51;;;;;;;13.55;7.28;;;23.00;99.90;;;;;;7402061;19;19934;-77
2023/06/17 11:01:21;;;;;;;10.20;6.30;;;22.40;99.90;;;;;;7407071;19;20299;-77
2023/06/17 11:04:01;;;;;;;13.57;7.47;;;22.60;99.90;;;;;;7407270;19;19953;-78
2023/06/17 11:06:36;;;;;;;11.77;6.38;;;22.70;99.90;;;;;;7403645;19;19945;-78
2023/06/17 11:09:08;;;;;;;16.88;8.35;;;22.50;99.90;;;;;;7406283;19;19953;-77
2023/06/17 11:11:41;;;;;;;11.18;7.65;;;22.80;99.90;;;;;;7410895;19;20039;-77
2023/06/17 11:14:11;;;;;;;12.80;7.35;;;22.90;99.90;;;;;;7406938;19;20034;-77
2023/06/17 11:16:45;;;;;;;12.73;6.70;;;22.90;99.90;;;;;;7409509;19;19919;-78
2023/06/17 11:19:16;;;;;;;11.93;6.43;;;23.60;99.90;;;;;;7408406;19;19937;-78
2023/06/17 11:21:46;;;;;;;;;;;22.90;99.90;;;;;;7404234;19;19915;-78
2023/06/17 11:24:21;;;;;;;13.50;8.18;;;23.20;99.90;;;;;;7405043;19;19907;-77
2023/06/17 11:26:56;;;;;;;10.80;6.90;;;23.10;99.90;;;;;;7401206;19;20268;-77
2023/06/17 11:29:28;;;;;;;8.70;6.47;;;23.20;99.90;;;;;;7404987;19;20392;-77
2023/06/17 11:32:03;;;;;;;22.75;10.95;;;23.60;99.90;;;;;;7401345;19;19914;-77
2023/06/17 11:34:36;;;;;;;11.93;7.35;;;23.30;99.90;;;;;;7405233;19;19921;-77
2023/06/17 11:37:10;;;;;;;12.90;7.72;;;23.20;99.90;;;;;;7403351;19;20015;-78
2023/06/17 11:39:46;;;;;;;11.23;6.13;;;23.40;99.90;;;;;;7404062;19;19918;-77
2023/06/17 11:42:19;;;;;;;16.20;8.73;;;25.00;99.90;;;;;;7406529;19;19930;-77
2023/06/17 11:44:52;;;;;;;12.95;7.47;;;23.90;99.90;;;;;;7405458;19;19946;-77
2023/06/17 11:47:36;;;;;;;14.18;8.25;;;24.10;99.90;;;;;;7404848;19;19918;-78
2023/06/17 11:50:09;;;;;;;14.65;8.65;;;25.30;99.90;;;;;;7407193;19;19942;-78
2023/06/17 11:52:40;;;;;;;14.75;8.50;;;24.80;99.90;;;;;;7404355;19;20342;-78
2023/06/17 11:55:19;;;;;;;16.73;9.20;;;24.90;99.90;;;;;;7409584;19;19919;-77
2023/06/17 11:57:51;;;;;;;16.80;9.45;;;25.00;99.90;;;;;;7405480;19;19978;-77
2023/06/17 12:00:25;;;;;;;16.05;8.77;;;25.30;99.90;;;;;;7404439;19;19922;-77
2023/06/17 12:02:58;;;;;;;15.00;8.52;;;23.40;99.90;;;;;;7403947;19;19939;-78
2023/06/17 12:05:30;;;;;;;16.80;7.75;;;25.30;99.90;;;;;;7408314;19;20272;-78
2023/06/17 12:08:03;;;;;;;15.70;9.18;;;26.40;99.90;;;;;;7407557;19;20004;-77
2023/06/17 12:10:40;;;;;;;15.40;8.20;;;25.70;99.90;;;;;;7402930;19;19915;-77
2023/06/17 12:13:17;;;;;;;14.35;8.80;;;25.70;99.90;;;;;;7402682;19;19951;-78
2023/06/17 12:15:48;;;;;;;15.40;8.75;;;25.90;99.90;;;;;;7402486;19;19970;-78
2023/06/17 12:18:21;;;;;;;16.67;8.45;;;26.10;99.90;;;;;;7405460;19;19918;-77
2023/06/17 12:20:57;;;;;;;17.42;8.52;;;26.80;99.90;;;;;;7404055;19;19921;-78
2023/06/17 12:23:29;;;;;;;18.27;9.40;;;26.20;99.90;;;;;;7404158;19;19928;-78
2023/06/17 12:26:01;;;;;;;16.00;8.80;;;25.80;99.90;;;;;;7403010;19;19923;-77
2023/06/17 12:28:35;;;;;;;15.20;9.05;;;26.40;99.90;;;;;;7405180;19;19932;-78
2023/06/17 12:31:05;;;;;;;15.23;8.85;;;26.10;99.90;;;;;;7406376;19;19942;-78
2023/06/17 12:33:39;;;;;;;15.05;7.80;;;26.20;99.90;;;;;;7406343;19;19910;-77
2023/06/17 12:36:09;;;;;;;16.55;8.80;;;26.70;99.90;;;;;;7403263;19;20278;-77
2023/06/17 12:38:50;;;;;;;14.40;8.57;;;26.70;99.90;;;;;;7403327;19;19939;-78
2023/06/17 12:41:23;;;;;;;13.18;7.65;;;26.60;99.90;;;;;;7402149;19;19923;-77
2023/06/17 12:43:57;;;;;;;16.08;9.52;;;26.70;99.90;;;;;;7408193;19;19921;-78
2023/06/17 12:46:28;;;;;;;14.85;8.68;;;26.80;99.90;;;;;;7408110;19;19982;-78
2023/06/17 12:48:59;;;;;;;12.98;7.90;;;27.20;99.90;;;;;;7408638;19;19995;-77
2023/06/17 12:51:34;;;;;;;16.35;9.82;;;26.40;99.90;;;;;;7410903;19;19951;-78
2023/06/17 12:54:04;;;;;;;17.02;7.97;;;26.70;99.90;;;;;;7413538;19;19929;-78
2023/06/17 12:56:35;;;;;;;17.73;7.75;;;26.70;99.90;;;;;;7413436;19;19939;-78
2023/06/17 12:59:11;;;;;;;14.30;9.13;;;27.10;99.90;;;;;;7408834;19;19966;-78
2023/06/17 13:01:43;;;;;;;14.75;8.45;;;26.90;99.90;;;;;;7410761;19;19911;-77
2023/06/17 13:04:13;;;;;;;15.15;8.02;;;26.60;99.90;;;;;;7409529;19;19914;-77
2023/06/17 13:06:53;;;;;;;15.85;7.72;;;26.80;99.90;;;;;;7406009;19;19915;-76
2023/06/17 13:09:23;;;;;;;16.98;7.57;;;27.00;99.90;;;;;;7409682;19;20005;-76
2023/06/17 13:11:56;;;;;;;12.18;7.28;;;27.20;99.90;;;;;;7411005;19;19918;-78
2023/06/17 13:14:29;;;;;;;10.70;7.32;;;27.30;99.90;;;;;;7410713;19;19915;-78